首页
METAR-TAF:

METAR-TAF

机场 :

Bad Vöslau

巴特弗斯勞, 奥地利

纬度: 47-57-52N, 经度: 016-15-34E, 海拔: 233米

当前天气观测

该预报发布于9小时和25分钟前的16:00 UTC
风速3节,风向
温度 16°C
湿度 48%
气压

METAR: LOAV 161600Z 35003KT 40KM FEW080AC 16/05

时间: 03:25 (01:25 UTC)

预报

该预报发布于14小时和0分钟前的11:25 UTC
预报有效从16日的 12点(UTC)到 16日的 21点(UTC)
风速10节,风向西北
能见度10公里或以上
少量云层高于3000英尺
多云层高于4500英尺
短暂存在
从 16日的 12点(UTC)到 16日的 14点(UTC)
风速15节,风向北转西北
成为
从 16日的 14点(UTC)到 16日的 17点(UTC)
风速2节,风向多变
散云层高于5000英尺

TAF: LOAV 161125Z 1612/1621 31010KT 9999 FEW030 BKN045 TEMPO 1612/1614 33015KT BECMG 1614/1617 VRB02KT SCT050

超过4000个机场的气象观测和天气预报(METAR&TAF报告)。

可查询的气象台以黄色和红色小点在地图上表示。

将鼠标移到小点上方,可查看气象台名称。

然后点击查看天气观测和预报。

如需切换地图:点击带黑十字的绿色按钮放大地图;点击带横线的绿色按钮缩小地图;或者点击绿色箭头查看邻近地区的地图。


METAR-TAF: